sensor_id;sensor_type;location;lat;lon;timestamp;pressure;altitude;pressure_sealevel;temperature;humidity
60852;BME280;48553;50.766;2.900;2022-09-01T00:01:18;101207.53;;;21.94;46.98
60852;BME280;48553;50.766;2.900;2022-09-01T00:04:22;101193.22;;;21.92;46.80
60852;BME280;48553;50.766;2.900;2022-09-01T00:07:27;101197.19;;;21.90;46.94
60852;BME280;48553;50.766;2.900;2022-09-01T00:10:31;101198.78;;;21.88;46.60
60852;BME280;48553;50.766;2.900;2022-09-01T00:13:32;101198.41;;;21.86;46.90
60852;BME280;48553;50.766;2.900;2022-09-01T00:16:33;101194.84;;;21.78;46.96
60852;BME280;48553;50.766;2.900;2022-09-01T00:19:33;101198.41;;;21.79;46.73
60852;BME280;48553;50.766;2.900;2022-09-01T00:22:35;101196.81;;;21.78;46.91
60852;BME280;48553;50.766;2.900;2022-09-01T00:25:36;101196.44;;;21.76;47.02
60852;BME280;48553;50.766;2.900;2022-09-01T00:28:36;101196.44;;;21.72;47.06
60852;BME280;48553;50.766;2.900;2022-09-01T00:31:37;101192.84;;;21.72;47.12
60852;BME280;48553;50.766;2.900;2022-09-01T00:34:38;101192.84;;;21.72;47.01
60852;BME280;48553;50.766;2.900;2022-09-01T00:37:39;101200.44;;;21.67;46.87
60852;BME280;48553;50.766;2.900;2022-09-01T00:40:39;101204.44;;;21.66;46.80
60852;BME280;48553;50.766;2.900;2022-09-01T00:43:50;101190.50;;;21.66;47.19
60852;BME280;48553;50.766;2.900;2022-09-01T00:46:52;101193.66;;;21.65;47.02
60852;BME280;48553;50.766;2.900;2022-09-01T00:49:54;101194.88;;;21.60;47.12
60852;BME280;48553;50.766;2.900;2022-09-01T00:52:55;101197.25;;;21.58;47.22
60852;BME280;48553;50.766;2.900;2022-09-01T00:55:56;101201.63;;;21.59;46.84
60852;BME280;48553;50.766;2.900;2022-09-01T00:58:58;101186.91;;;21.55;46.72
60852;BME280;48553;50.766;2.900;2022-09-01T01:01:59;101186.50;;;21.50;47.13
60852;BME280;48553;50.766;2.900;2022-09-01T01:05:00;101186.91;;;21.52;46.91
60852;BME280;48553;50.766;2.900;2022-09-01T01:08:03;101188.91;;;21.47;46.78
60852;BME280;48553;50.766;2.900;2022-09-01T01:11:08;101182.94;;;21.45;46.98
60852;BME280;48553;50.766;2.900;2022-09-01T01:14:08;101189.28;;;21.46;46.96
60852;BME280;48553;50.766;2.900;2022-09-01T01:17:12;101182.53;;;21.43;46.72
60852;BME280;48553;50.766;2.900;2022-09-01T01:20:16;101184.91;;;21.38;46.92
60852;BME280;48553;50.766;2.900;2022-09-01T01:27:17;101178.13;;;21.35;46.98
60852;BME280;48553;50.766;2.900;2022-09-01T01:30:20;101182.53;;;21.33;46.87
60852;BME280;48553;50.766;2.900;2022-09-01T01:33:27;101174.16;;;21.33;46.82
60852;BME280;48553;50.766;2.900;2022-09-01T01:36:31;101172.56;;;21.28;46.93
60852;BME280;48553;50.766;2.900;2022-09-01T01:39:32;101178.16;;;21.28;47.14
60852;BME280;48553;50.766;2.900;2022-09-01T01:42:33;101176.56;;;21.23;46.87
60852;BME280;48553;50.766;2.900;2022-09-01T01:45:34;101174.16;;;21.22;46.87
60852;BME280;48553;50.766;2.900;2022-09-01T01:48:38;101178.53;;;21.16;47.30
60852;BME280;48553;50.766;2.900;2022-09-01T01:51:40;101179.75;;;21.15;47.04
60852;BME280;48553;50.766;2.900;2022-09-01T01:54:42;101184.09;;;21.16;47.22
60852;BME280;48553;50.766;2.900;2022-09-01T01:57:46;101171.38;;;21.15;47.30
60852;BME280;48553;50.766;2.900;2022-09-01T02:00:50;101181.72;;;21.11;46.81
60852;BME280;48553;50.766;2.900;2022-09-01T02:03:51;101183.31;;;21.04;47.33
60852;BME280;48553;50.766;2.900;2022-09-01T02:06:53;101178.53;;;21.05;47.27
60852;BME280;48553;50.766;2.900;2022-09-01T02:09:54;101179.72;;;21.04;47.43
60852;BME280;48553;50.766;2.900;2022-09-01T02:12:58;101183.72;;;21.03;46.93
60852;BME280;48553;50.766;2.900;2022-09-01T02:16:06;101184.09;;;20.98;47.40
60852;BME280;48553;50.766;2.900;2022-09-01T02:19:07;101182.13;;;20.98;47.09
60852;BME280;48553;50.766;2.900;2022-09-01T02:22:09;101183.69;;;20.96;47.23
60852;BME280;48553;50.766;2.900;2022-09-01T02:25:11;101182.09;;;20.95;47.51
60852;BME280;48553;50.766;2.900;2022-09-01T02:28:13;101180.50;;;20.94;47.33
60852;BME280;48553;50.766;2.900;2022-09-01T02:31:17;101180.91;;;20.89;47.49
60852;BME280;48553;50.766;2.900;2022-09-01T02:37:23;101178.91;;;20.82;47.77
60852;BME280;48553;50.766;2.900;2022-09-01T02:40:24;101180.88;;;20.81;47.38
60852;BME280;48553;50.766;2.900;2022-09-01T02:43:25;101172.53;;;20.78;47.43
60852;BME280;48553;50.766;2.900;2022-09-01T02:46:28;101175.31;;;20.74;47.61
60852;BME280;48553;50.766;2.900;2022-09-01T02:49:28;101174.53;;;20.74;47.46
60852;BME280;48553;50.766;2.900;2022-09-01T02:52:29;101176.50;;;20.73;47.51
60852;BME280;48553;50.766;2.900;2022-09-01T02:55:37;101164.53;;;20.65;47.48
60852;BME280;48553;50.766;2.900;2022-09-01T02:58:41;101174.91;;;20.65;47.76
60852;BME280;48553;50.766;2.900;2022-09-01T03:01:45;101178.84;;;20.64;47.49
60852;BME280;48553;50.766;2.900;2022-09-01T03:04:46;101174.09;;;20.61;47.55
60852;BME280;48553;50.766;2.900;2022-09-01T03:07:53;101175.69;;;20.58;47.54
60852;BME280;48553;50.766;2.900;2022-09-01T03:10:55;101170.88;;;20.55;47.64
60852;BME280;48553;50.766;2.900;2022-09-01T03:13:57;101170.88;;;20.55;47.49
60852;BME280;48553;50.766;2.900;2022-09-01T03:16:57;101172.06;;;20.54;47.63
60852;BME280;48553;50.766;2.900;2022-09-01T03:19:59;101165.28;;;20.52;47.70
60852;BME280;48553;50.766;2.900;2022-09-01T03:23:01;101171.66;;;20.49;47.64
60852;BME280;48553;50.766;2.900;2022-09-01T03:26:04;101170.44;;;20.46;47.55
60852;BME280;48553;50.766;2.900;2022-09-01T03:29:04;101175.22;;;20.42;47.64
60852;BME280;48553;50.766;2.900;2022-09-01T03:32:05;101169.66;;;20.42;47.62
60852;BME280;48553;50.766;2.900;2022-09-01T03:35:06;101171.22;;;20.39;47.61
60852;BME280;48553;50.766;2.900;2022-09-01T03:38:08;101172.41;;;20.38;47.63
60852;BME280;48553;50.766;2.900;2022-09-01T03:41:08;101168.81;;;20.34;47.78
60852;BME280;48553;50.766;2.900;2022-09-01T03:44:10;101168.41;;;20.32;47.81
60852;BME280;48553;50.766;2.900;2022-09-01T03:47:11;101170.41;;;20.32;47.75
60852;BME280;48553;50.766;2.900;2022-09-01T03:50:16;101163.22;;;20.27;47.62
60852;BME280;48553;50.766;2.900;2022-09-01T03:53:19;101165.19;;;20.23;47.59
60852;BME280;48553;50.766;2.900;2022-09-01T03:56:22;101167.59;;;20.24;47.59
60852;BME280;48553;50.766;2.900;2022-09-01T03:59:24;101163.59;;;20.18;47.63
60852;BME280;48553;50.766;2.900;2022-09-01T04:02:26;101165.56;;;20.18;47.76
60852;BME280;48553;50.766;2.900;2022-09-01T04:05:30;101162.00;;;20.17;47.58
60852;BME280;48553;50.766;2.900;2022-09-01T04:08:33;101158.00;;;20.15;47.55
60852;BME280;48553;50.766;2.900;2022-09-01T04:11:34;101159.97;;;20.11;47.63
60852;BME280;48553;50.766;2.900;2022-09-01T04:14:35;101163.16;;;20.09;47.68
60852;BME280;48553;50.766;2.900;2022-09-01T04:17:36;101155.59;;;20.06;47.74
60852;BME280;48553;50.766;2.900;2022-09-01T04:20:57;101158.38;;;20.06;47.76
60852;BME280;48553;50.766;2.900;2022-09-01T04:23:58;101161.53;;;20.01;47.75
60852;BME280;48553;50.766;2.900;2022-09-01T04:27:02;101158.72;;;19.97;47.75
60852;BME280;48553;50.766;2.900;2022-09-01T04:30:03;101156.72;;;19.98;47.84
60852;BME280;48553;50.766;2.900;2022-09-01T04:33:04;101171.06;;;19.96;47.84
60852;BME280;48553;50.766;2.900;2022-09-01T04:36:27;101154.75;;;19.95;47.61
60852;BME280;48553;50.766;2.900;2022-09-01T04:39:26;101161.09;;;19.95;47.64
60852;BME280;48553;50.766;2.900;2022-09-01T04:42:29;101160.28;;;19.91;47.63
60852;BME280;48553;50.766;2.900;2022-09-01T04:45:33;101155.13;;;19.90;47.73
60852;BME280;48553;50.766;2.900;2022-09-01T04:48:35;101155.50;;;19.88;47.62
60852;BME280;48553;50.766;2.900;2022-09-01T04:51:40;101144.34;;;19.85;47.74
60852;BME280;48553;50.766;2.900;2022-09-01T04:54:40;101154.28;;;19.78;47.58
60852;BME280;48553;50.766;2.900;2022-09-01T04:57:46;101153.44;;;19.78;47.68
60852;BME280;48553;50.766;2.900;2022-09-01T05:00:48;101150.66;;;19.74;47.72
60852;BME280;48553;50.766;2.900;2022-09-01T05:03:51;101154.63;;;19.73;47.65
60852;BME280;48553;50.766;2.900;2022-09-01T05:07:03;101146.28;;;19.70;47.79
60852;BME280;48553;50.766;2.900;2022-09-01T05:10:04;101159.81;;;19.71;47.78
60852;BME280;48553;50.766;2.900;2022-09-01T05:13:05;101156.16;;;19.67;47.79
60852;BME280;48553;50.766;2.900;2022-09-01T05:16:11;101158.53;;;19.65;47.84
60852;BME280;48553;50.766;2.900;2022-09-01T05:19:15;101150.97;;;19.66;47.79
60852;BME280;48553;50.766;2.900;2022-09-01T05:22:16;101158.50;;;19.61;47.56
60852;BME280;48553;50.766;2.900;2022-09-01T05:25:21;101151.72;;;19.59;47.78
60852;BME280;48553;50.766;2.900;2022-09-01T05:28:22;101151.31;;;19.57;47.97
60852;BME280;48553;50.766;2.900;2022-09-01T05:31:27;101156.09;;;19.56;47.68
60852;BME280;48553;50.766;2.900;2022-09-01T05:34:34;101162.84;;;19.59;47.81
60852;BME280;48553;50.766;2.900;2022-09-01T05:37:36;101152.09;;;19.57;47.78
60852;BME280;48553;50.766;2.900;2022-09-01T05:40:41;101154.50;;;19.55;48.00
60852;BME280;48553;50.766;2.900;2022-09-01T05:43:44;101153.69;;;19.55;47.90
60852;BME280;48553;50.766;2.900;2022-09-01T05:46:47;101158.88;;;19.56;47.98
60852;BME280;48553;50.766;2.900;2022-09-01T05:49:48;101158.47;;;19.54;48.04
60852;BME280;48553;50.766;2.900;2022-09-01T05:52:49;101161.66;;;19.56;47.91
60852;BME280;48553;50.766;2.900;2022-09-01T05:55:51;101152.91;;;19.54;48.20
60852;BME280;48553;50.766;2.900;2022-09-01T05:58:59;101156.50;;;19.58;48.36
60852;BME280;48553;50.766;2.900;2022-09-01T06:02:00;101145.75;;;19.57;48.20
60852;BME280;48553;50.766;2.900;2022-09-01T06:05:02;101154.50;;;19.59;48.34
60852;BME280;48553;50.766;2.900;2022-09-01T06:08:04;101155.34;;;19.63;48.23
60852;BME280;48553;50.766;2.900;2022-09-01T06:11:06;101145.41;;;19.66;48.44
60852;BME280;48553;50.766;2.900;2022-09-01T06:14:13;101143.44;;;19.66;48.32
60852;BME280;48553;50.766;2.900;2022-09-01T06:17:15;101149.84;;;19.70;48.35
60852;BME280;48553;50.766;2.900;2022-09-01T06:20:17;101145.47;;;19.73;48.47
60852;BME280;48553;50.766;2.900;2022-09-01T06:23:18;101137.94;;;19.73;48.31
60852;BME280;48553;50.766;2.900;2022-09-01T06:26:37;101153.84;;;19.80;48.27
60852;BME280;48553;50.766;2.900;2022-09-01T06:29:39;101151.91;;;19.84;48.37
60852;BME280;48553;50.766;2.900;2022-09-01T06:32:41;101147.56;;;19.90;48.20
60852;BME280;48553;50.766;2.900;2022-09-01T06:35:43;101163.09;;;19.95;48.03
60852;BME280;48553;50.766;2.900;2022-09-01T06:38:47;101160.34;;;19.98;48.11
60852;BME280;48553;50.766;2.900;2022-09-01T06:41:48;101154.78;;;19.98;48.36
60852;BME280;48553;50.766;2.900;2022-09-01T06:44:51;101157.94;;;20.00;48.05
60852;BME280;48553;50.766;2.900;2022-09-01T06:47:52;101157.56;;;20.02;48.22
60852;BME280;48553;50.766;2.900;2022-09-01T06:50:54;101161.13;;;20.02;48.24
60852;BME280;48553;50.766;2.900;2022-09-01T06:53:55;101163.16;;;20.09;48.07
60852;BME280;48553;50.766;2.900;2022-09-01T06:56:55;101163.56;;;20.11;48.14
60852;BME280;48553;50.766;2.900;2022-09-01T06:59:57;101170.72;;;20.16;47.94
60852;BME280;48553;50.766;2.900;2022-09-01T07:02:58;101174.31;;;20.16;47.77
60852;BME280;48553;50.766;2.900;2022-09-01T07:05:58;101170.34;;;20.21;47.84
60852;BME280;48553;50.766;2.900;2022-09-01T07:09:00;101177.16;;;20.23;47.83
60852;BME280;48553;50.766;2.900;2022-09-01T07:12:01;101171.56;;;20.27;47.85
60852;BME280;48553;50.766;2.900;2022-09-01T07:15:03;101172.78;;;20.30;47.60
60852;BME280;48553;50.766;2.900;2022-09-01T07:18:03;101179.53;;;20.32;47.92
60852;BME280;48553;50.766;2.900;2022-09-01T07:21:06;101177.97;;;20.35;47.80
60852;BME280;48553;50.766;2.900;2022-09-01T07:24:07;101175.59;;;20.40;47.63
60852;BME280;48553;50.766;2.900;2022-09-01T07:27:08;101189.53;;;20.48;47.57
60852;BME280;48553;50.766;2.900;2022-09-01T07:30:09;101187.97;;;20.54;47.37
60852;BME280;48553;50.766;2.900;2022-09-01T07:33:11;101184.44;;;20.60;47.40
60852;BME280;48553;50.766;2.900;2022-09-01T07:36:12;101186.03;;;20.69;47.13
60852;BME280;48553;50.766;2.900;2022-09-01T07:39:12;101180.50;;;20.76;46.98
60852;BME280;48553;50.766;2.900;2022-09-01T07:42:16;101188.88;;;20.83;46.94
60852;BME280;48553;50.766;2.900;2022-09-01T07:45:17;101188.47;;;20.88;47.11
60852;BME280;48553;50.766;2.900;2022-09-01T07:48:19;101184.50;;;20.96;47.13
60852;BME280;48553;50.766;2.900;2022-09-01T07:51:23;101183.31;;;21.04;47.12
60852;BME280;48553;50.766;2.900;2022-09-01T07:54:24;101191.69;;;21.15;46.91
60852;BME280;48553;50.766;2.900;2022-09-01T07:57:25;101183.72;;;21.24;46.79
60852;BME280;48553;50.766;2.900;2022-09-01T08:00:25;101178.94;;;21.36;47.06
60852;BME280;48553;50.766;2.900;2022-09-01T08:03:28;101188.50;;;21.45;46.70
60852;BME280;48553;50.766;2.900;2022-09-01T08:06:29;101184.91;;;21.56;46.80
60852;BME280;48553;50.766;2.900;2022-09-01T08:09:29;101185.28;;;21.68;46.40
60852;BME280;48553;50.766;2.900;2022-09-01T08:12:30;101178.50;;;21.77;46.33
60852;BME280;48553;50.766;2.900;2022-09-01T08:15:30;101183.22;;;21.90;46.46
60852;BME280;48553;50.766;2.900;2022-09-01T08:18:31;101188.41;;;21.99;46.50
60852;BME280;48553;50.766;2.900;2022-09-01T08:21:31;101179.59;;;22.08;46.54
60852;BME280;48553;50.766;2.900;2022-09-01T08:24:32;101183.53;;;22.18;46.47
60852;BME280;48553;50.766;2.900;2022-09-01T08:27:33;101184.31;;;22.29;46.63
60852;BME280;48553;50.766;2.900;2022-09-01T08:30:38;101188.28;;;22.35;46.18
60852;BME280;48553;50.766;2.900;2022-09-01T08:33:40;101195.00;;;22.45;46.46
60852;BME280;48553;50.766;2.900;2022-09-01T08:36:41;101196.97;;;22.51;46.48
60852;BME280;48553;50.766;2.900;2022-09-01T08:39:41;101203.31;;;22.59;46.16
60852;BME280;48553;50.766;2.900;2022-09-01T08:45:50;101193.97;;;22.84;45.93
60852;BME280;48553;50.766;2.900;2022-09-01T08:48:56;101185.50;;;22.98;45.92
60852;BME280;48553;50.766;2.900;2022-09-01T08:55:36;101194.53;;;23.24;46.02
60852;BME280;48553;50.766;2.900;2022-09-01T08:58:39;101193.16;;;23.43;45.59
60852;BME280;48553;50.766;2.900;2022-09-01T09:01:42;101192.56;;;23.62;45.62
60852;BME280;48553;50.766;2.900;2022-09-01T09:05:54;101185.66;;;23.74;45.29
60852;BME280;48553;50.766;2.900;2022-09-01T09:15:12;101189.84;;;24.27;44.71
60852;BME280;48553;50.766;2.900;2022-09-01T09:18:43;101180.78;;;24.47;44.62
60852;BME280;48553;50.766;2.900;2022-09-01T09:21:51;101181.06;;;24.59;44.50
60852;BME280;48553;50.766;2.900;2022-09-01T09:25:10;101174.00;;;24.75;44.29
60852;BME280;48553;50.766;2.900;2022-09-01T09:28:11;101185.06;;;24.86;45.00
60852;BME280;48553;50.766;2.900;2022-09-01T09:34:39;101178.53;;;25.19;44.16
60852;BME280;48553;50.766;2.900;2022-09-01T09:37:40;101182.25;;;25.36;43.54
60852;BME280;48553;50.766;2.900;2022-09-01T09:47:40;101167.50;;;25.76;43.08
60852;BME280;48553;50.766;2.900;2022-09-01T09:50:41;101162.06;;;25.89;42.89
60852;BME280;48553;50.766;2.900;2022-09-01T09:53:43;101155.06;;;25.97;43.04
60852;BME280;48553;50.766;2.900;2022-09-01T09:56:44;101157.72;;;26.04;42.84
60852;BME280;48553;50.766;2.900;2022-09-01T10:02:53;101160.47;;;26.28;42.99
60852;BME280;48553;50.766;2.900;2022-09-01T10:05:54;101152.13;;;26.40;42.19
60852;BME280;48553;50.766;2.900;2022-09-01T10:08:55;101151.00;;;26.54;42.69
60852;BME280;48553;50.766;2.900;2022-09-01T10:11:57;101146.84;;;26.62;42.30
60852;BME280;48553;50.766;2.900;2022-09-01T10:15:07;101139.03;;;26.70;42.29
60852;BME280;48553;50.766;2.900;2022-09-01T10:18:15;101138.78;;;26.81;42.06
60852;BME280;48553;50.766;2.900;2022-09-01T10:21:23;101135.59;;;26.95;41.02
60852;BME280;48553;50.766;2.900;2022-09-01T10:24:34;101126.97;;;27.02;40.77
60852;BME280;48553;50.766;2.900;2022-09-01T10:27:36;101133.56;;;27.12;40.95
60852;BME280;48553;50.766;2.900;2022-09-01T10:30:41;101124.09;;;27.22;40.82
60852;BME280;48553;50.766;2.900;2022-09-01T10:33:43;101132.69;;;27.32;40.68
60852;BME280;48553;50.766;2.900;2022-09-01T10:36:45;101121.84;;;27.46;40.22
60852;BME280;48553;50.766;2.900;2022-09-01T10:40:11;101129.72;;;27.52;40.06
60852;BME280;48553;50.766;2.900;2022-09-01T11:11:46;101108.63;;;28.15;38.19
60852;BME280;48553;50.766;2.900;2022-09-01T11:15:00;101109.53;;;28.24;37.82
60852;BME280;48553;50.766;2.900;2022-09-01T11:18:07;101112.94;;;28.32;38.05
60852;BME280;48553;50.766;2.900;2022-09-01T11:21:15;101106.94;;;28.43;37.47
60852;BME280;48553;50.766;2.900;2022-09-01T11:24:47;101110.22;;;28.41;37.50
60852;BME280;48553;50.766;2.900;2022-09-01T11:31:09;101105.38;;;28.67;37.10
60852;BME280;48553;50.766;2.900;2022-09-01T11:34:17;101102.31;;;28.74;36.82
60852;BME280;48553;50.766;2.900;2022-09-01T11:37:20;101088.78;;;28.82;36.99
60852;BME280;48553;50.766;2.900;2022-09-01T11:40:25;101091.56;;;28.95;37.13
60852;BME280;48553;50.766;2.900;2022-09-01T11:43:26;101089.06;;;29.10;36.23
60852;BME280;48553;50.766;2.900;2022-09-01T11:46:34;101087.56;;;29.18;36.52
60852;BME280;48553;50.766;2.900;2022-09-01T11:49:47;101089.00;;;29.23;36.32
60852;BME280;48553;50.766;2.900;2022-09-01T11:53:06;101079.38;;;29.33;35.59
60852;BME280;48553;50.766;2.900;2022-09-01T11:56:24;101069.97;;;29.36;35.76
60852;BME280;48553;50.766;2.900;2022-09-01T11:59:33;101077.28;;;29.46;35.98
60852;BME280;48553;50.766;2.900;2022-09-01T12:02:42;101073.81;;;29.64;35.11
60852;BME280;48553;50.766;2.900;2022-09-01T12:05:45;101078.44;;;29.71;35.24
60852;BME280;48553;50.766;2.900;2022-09-01T12:11:54;101086.31;;;29.76;34.84
60852;BME280;48553;50.766;2.900;2022-09-01T12:18:22;101077.88;;;29.85;34.49
60852;BME280;48553;50.766;2.900;2022-09-01T12:21:39;101082.88;;;29.81;34.69
60852;BME280;48553;50.766;2.900;2022-09-01T12:24:50;101073.94;;;29.83;34.77
60852;BME280;48553;50.766;2.900;2022-09-01T12:27:51;101076.63;;;29.86;34.33
60852;BME280;48553;50.766;2.900;2022-09-01T12:30:53;101084.03;;;29.93;34.22
60852;BME280;48553;50.766;2.900;2022-09-01T12:33:54;101080.41;;;29.92;34.17
60852;BME280;48553;50.766;2.900;2022-09-01T12:40:21;101074.94;;;29.89;34.41
60852;BME280;48553;50.766;2.900;2022-09-01T12:43:27;101079.97;;;29.94;34.09
60852;BME280;48553;50.766;2.900;2022-09-01T12:46:42;101072.94;;;29.98;33.76
60852;BME280;48553;50.766;2.900;2022-09-01T12:49:45;101068.06;;;29.99;34.24
60852;BME280;48553;50.766;2.900;2022-09-01T12:52:51;101066.06;;;30.09;33.89
60852;BME280;48553;50.766;2.900;2022-09-01T12:56:02;101063.22;;;30.09;33.52
60852;BME280;48553;50.766;2.900;2022-09-01T12:59:11;101065.97;;;30.22;33.34
60852;BME280;48553;50.766;2.900;2022-09-01T13:02:32;101065.19;;;30.21;33.32
60852;BME280;48553;50.766;2.900;2022-09-01T13:05:38;101057.22;;;30.29;33.05
60852;BME280;48553;50.766;2.900;2022-09-01T13:08:39;101057.47;;;30.22;33.15
60852;BME280;48553;50.766;2.900;2022-09-01T13:11:40;101049.19;;;30.27;33.20
60852;BME280;48553;50.766;2.900;2022-09-01T13:14:46;101051.09;;;30.30;33.05
60852;BME280;48553;50.766;2.900;2022-09-01T13:17:47;101047.94;;;30.28;32.84
60852;BME280;48553;50.766;2.900;2022-09-01T13:20:48;101055.34;;;30.35;32.97
60852;BME280;48553;50.766;2.900;2022-09-01T13:23:48;101048.44;;;30.45;32.85
60852;BME280;48553;50.766;2.900;2022-09-01T13:26:49;101043.00;;;30.60;32.67
60852;BME280;48553;50.766;2.900;2022-09-01T13:29:56;101045.19;;;30.56;32.50
60852;BME280;48553;50.766;2.900;2022-09-01T13:32:56;101029.63;;;30.60;32.15
60852;BME280;48553;50.766;2.900;2022-09-01T13:35:57;101043.16;;;30.66;32.33
60852;BME280;48553;50.766;2.900;2022-09-01T13:38:57;101038.63;;;30.77;31.69
60852;BME280;48553;50.766;2.900;2022-09-01T13:41:58;101035.50;;;30.75;32.38
60852;BME280;48553;50.766;2.900;2022-09-01T13:44:58;101034.44;;;30.91;32.13
60852;BME280;48553;50.766;2.900;2022-09-01T13:47:58;101024.34;;;30.99;32.18
60852;BME280;48553;50.766;2.900;2022-09-01T13:50:59;101014.63;;;31.00;32.42
60852;BME280;48553;50.766;2.900;2022-09-01T13:54:00;101023.72;;;30.95;32.44
60852;BME280;48553;50.766;2.900;2022-09-01T13:57:00;101015.22;;;30.95;31.90
60852;BME280;48553;50.766;2.900;2022-09-01T14:00:02;101021.84;;;30.92;32.18
60852;BME280;48553;50.766;2.900;2022-09-01T14:03:06;101021.84;;;30.92;32.04
60852;BME280;48553;50.766;2.900;2022-09-01T14:06:07;101013.19;;;30.96;31.96
60852;BME280;48553;50.766;2.900;2022-09-01T14:09:07;101011.59;;;31.04;31.59
60852;BME280;48553;50.766;2.900;2022-09-01T14:12:08;101014.13;;;31.02;31.98
60852;BME280;48553;50.766;2.900;2022-09-01T14:15:09;101014.63;;;30.91;31.79
60852;BME280;48553;50.766;2.900;2022-09-01T14:18:10;101000.44;;;31.00;31.83
60852;BME280;48553;50.766;2.900;2022-09-01T14:21:14;101008.63;;;30.98;31.86
60852;BME280;48553;50.766;2.900;2022-09-01T14:24:15;101004.22;;;30.97;31.67
60852;BME280;48553;50.766;2.900;2022-09-01T14:27:20;101011.28;;;31.02;31.43
60852;BME280;48553;50.766;2.900;2022-09-01T14:30:26;101013.19;;;31.05;31.15
60852;BME280;48553;50.766;2.900;2022-09-01T14:33:27;101011.28;;;31.02;31.50
60852;BME280;48553;50.766;2.900;2022-09-01T14:36:27;100994.78;;;30.91;31.62
60852;BME280;48553;50.766;2.900;2022-09-01T14:39:28;101002.44;;;30.81;31.76
60852;BME280;48553;50.766;2.900;2022-09-01T14:42:29;101000.44;;;30.73;31.83
60852;BME280;48553;50.766;2.900;2022-09-01T14:45:31;100987.97;;;30.61;31.93
60852;BME280;48553;50.766;2.900;2022-09-01T14:48:32;100989.38;;;30.56;32.01
60852;BME280;48553;50.766;2.900;2022-09-01T14:51:33;100992.84;;;30.51;31.91
60852;BME280;48553;50.766;2.900;2022-09-01T14:54:37;100989.66;;;30.31;32.50
60852;BME280;48553;50.766;2.900;2022-09-01T14:57:38;100981.44;;;30.24;31.93
60852;BME280;48553;50.766;2.900;2022-09-01T15:00:39;100979.06;;;30.22;31.99
60852;BME280;48553;50.766;2.900;2022-09-01T15:03:42;100975.56;;;30.09;32.19
60852;BME280;48553;50.766;2.900;2022-09-01T15:06:43;100983.72;;;29.97;32.33
60852;BME280;48553;50.766;2.900;2022-09-01T15:09:43;100982.28;;;29.93;32.20
60852;BME280;48553;50.766;2.900;2022-09-01T15:12:44;100976.78;;;29.89;32.45
60852;BME280;48553;50.766;2.900;2022-09-01T15:15:44;100974.75;;;29.90;32.13
60852;BME280;48553;50.766;2.900;2022-09-01T15:18:45;100975.69;;;29.87;32.07
60852;BME280;48553;50.766;2.900;2022-09-01T15:21:45;100981.91;;;29.82;32.23
60852;BME280;48553;50.766;2.900;2022-09-01T15:24:46;100974.56;;;29.84;32.11
60852;BME280;48553;50.766;2.900;2022-09-01T15:27:47;100973.94;;;29.80;31.21
60852;BME280;48553;50.766;2.900;2022-09-01T15:30:47;100973.59;;;29.78;31.53
60852;BME280;48553;50.766;2.900;2022-09-01T15:33:47;100965.44;;;29.80;31.69
60852;BME280;48553;50.766;2.900;2022-09-01T15:36:48;100958.22;;;29.79;31.41
60852;BME280;48553;50.766;2.900;2022-09-01T15:39:48;100960.44;;;29.84;30.99
60852;BME280;48553;50.766;2.900;2022-09-01T15:42:49;100958.50;;;29.72;31.55
60852;BME280;48553;50.766;2.900;2022-09-01T15:45:49;100957.72;;;29.71;31.00
60852;BME280;48553;50.766;2.900;2022-09-01T15:48:49;100956.72;;;29.65;31.49
60852;BME280;48553;50.766;2.900;2022-09-01T15:51:54;100954.03;;;29.62;31.35
60852;BME280;48553;50.766;2.900;2022-09-01T15:54:55;100946.63;;;29.55;31.35
60852;BME280;48553;50.766;2.900;2022-09-01T15:57:57;100956.00;;;29.52;31.89
60852;BME280;48553;50.766;2.900;2022-09-01T16:00:57;100949.91;;;29.53;31.67
60852;BME280;48553;50.766;2.900;2022-09-01T16:03:58;100958.22;;;29.48;31.52
60852;BME280;48553;50.766;2.900;2022-09-01T16:07:00;100955.00;;;29.37;31.58
60852;BME280;48553;50.766;2.900;2022-09-01T16:10:00;100948.56;;;29.36;31.10
60852;BME280;48553;50.766;2.900;2022-09-01T16:13:01;100941.47;;;29.31;31.23
60852;BME280;48553;50.766;2.900;2022-09-01T16:19:58;100942.00;;;29.17;31.05
60852;BME280;48553;50.766;2.900;2022-09-01T16:26:14;100937.09;;;29.08;31.33
60852;BME280;48553;50.766;2.900;2022-09-01T16:29:39;100931.19;;;28.93;31.39
60852;BME280;48553;50.766;2.900;2022-09-01T16:32:44;100931.41;;;28.86;31.49
60852;BME280;48553;50.766;2.900;2022-09-01T16:38:49;100927.06;;;28.72;31.62
60852;BME280;48553;50.766;2.900;2022-09-01T16:42:34;100934.22;;;28.64;31.70
60852;BME280;48553;50.766;2.900;2022-09-01T16:45:54;100915.53;;;28.58;31.65
60852;BME280;48553;50.766;2.900;2022-09-01T16:55:31;100919.06;;;28.36;31.46
60852;BME280;48553;50.766;2.900;2022-09-01T16:58:47;100918.97;;;28.27;32.31
60852;BME280;48553;50.766;2.900;2022-09-01T17:05:41;100918.34;;;28.10;32.62
60852;BME280;48553;50.766;2.900;2022-09-01T17:08:50;100912.13;;;28.02;32.78
60852;BME280;48553;50.766;2.900;2022-09-01T17:12:04;100914.06;;;27.93;32.96
60852;BME280;48553;50.766;2.900;2022-09-01T17:15:14;100913.88;;;27.87;32.64
60852;BME280;48553;50.766;2.900;2022-09-01T17:18:40;100920.94;;;27.79;32.52
60852;BME280;48553;50.766;2.900;2022-09-01T17:21:47;100917.56;;;27.71;32.38
60852;BME280;48553;50.766;2.900;2022-09-01T17:25:00;100924.66;;;27.63;33.45
60852;BME280;48553;50.766;2.900;2022-09-01T17:28:14;100924.09;;;27.55;33.56
60852;BME280;48553;50.766;2.900;2022-09-01T17:31:31;100930.25;;;27.50;33.52
60852;BME280;48553;50.766;2.900;2022-09-01T17:57:39;100926.28;;;26.93;33.74
60852;BME280;48553;50.766;2.900;2022-09-01T18:00:51;100927.28;;;26.86;33.87